createdAt,value
2018-06-30T00:01:24.079Z,3.07
2018-06-30T00:03:53.738Z,3.30
2018-06-30T00:06:24.826Z,3.10
2018-06-30T00:08:55.116Z,3.77
2018-06-30T00:11:24.848Z,9.97
2018-06-30T00:13:54.771Z,13.83
2018-06-30T00:16:24.542Z,9.27
2018-06-30T00:18:55.766Z,6.53
2018-06-30T00:21:26.205Z,4.10
2018-06-30T00:23:55.924Z,4.23
2018-06-30T00:26:25.688Z,5.10
2018-06-30T00:28:55.535Z,3.90
2018-06-30T00:31:24.861Z,6.30
2018-06-30T00:33:54.439Z,4.37
2018-06-30T00:36:24.148Z,4.67
2018-06-30T00:38:53.675Z,4.50
2018-06-30T00:41:23.727Z,3.93
2018-06-30T00:43:53.508Z,2.90
2018-06-30T00:46:22.812Z,3.27
2018-06-30T00:48:52.387Z,3.47
2018-06-30T00:51:22.670Z,3.60
2018-06-30T00:53:52.028Z,3.50
2018-06-30T00:56:22.093Z,5.20
2018-06-30T00:58:51.668Z,4.23
2018-06-30T01:01:21.001Z,3.43
2018-06-30T01:03:50.384Z,3.70
2018-06-30T01:06:20.515Z,3.43
2018-06-30T01:08:49.876Z,3.47
2018-06-30T01:11:19.454Z,4.30
2018-06-30T01:13:48.792Z,6.13
2018-06-30T01:16:18.189Z,3.70
2018-06-30T01:18:47.933Z,3.10
2018-06-30T01:21:17.246Z,4.37
2018-06-30T01:23:46.568Z,3.83
2018-06-30T01:26:16.143Z,4.53
2018-06-30T01:28:45.485Z,3.47
2018-06-30T01:31:14.812Z,3.77
2018-06-30T01:33:44.179Z,3.47
2018-06-30T01:36:13.484Z,3.30
2018-06-30T01:38:42.827Z,3.30
2018-06-30T01:41:12.153Z,4.40
2018-06-30T01:43:42.272Z,3.30
2018-06-30T01:46:11.573Z,3.53
2018-06-30T01:48:41.235Z,3.50
2018-06-30T01:51:10.554Z,3.80
2018-06-30T01:53:39.937Z,3.50
2018-06-30T01:56:09.364Z,3.63
2018-06-30T01:58:39.026Z,3.43
2018-06-30T02:01:08.571Z,3.40
2018-06-30T02:03:37.932Z,3.70
2018-06-30T02:06:07.449Z,3.93
2018-06-30T02:08:36.776Z,4.50
2018-06-30T02:11:06.604Z,3.67
2018-06-30T02:13:35.970Z,3.73
2018-06-30T02:16:05.357Z,3.60
2018-06-30T02:18:35.387Z,3.67
2018-06-30T02:21:06.436Z,3.60
2018-06-30T02:23:35.866Z,3.63
2018-06-30T02:26:05.622Z,3.50
2018-06-30T02:28:34.943Z,3.80
2018-06-30T02:31:04.546Z,3.77
2018-06-30T02:33:33.877Z,4.27
2018-06-30T02:36:03.244Z,4.07
2018-06-30T02:38:32.551Z,4.17
2018-06-30T02:41:02.512Z,3.70
2018-06-30T02:43:32.178Z,4.13
2018-06-30T02:46:02.091Z,4.40
2018-06-30T02:48:31.524Z,3.77
2018-06-30T02:51:00.874Z,4.03
2018-06-30T02:53:30.195Z,4.07
2018-06-30T02:56:00.215Z,4.13
2018-06-30T02:58:29.630Z,3.40
2018-06-30T03:00:59.440Z,3.80
2018-06-30T03:03:28.772Z,3.67
2018-06-30T03:05:58.481Z,4.10
2018-06-30T03:08:28.100Z,4.07
2018-06-30T03:10:57.713Z,3.80
2018-06-30T03:13:27.293Z,3.80
2018-06-30T03:15:56.888Z,4.00
2018-06-30T03:18:26.237Z,3.50
2018-06-30T03:20:55.963Z,3.50
2018-06-30T03:23:26.991Z,3.67
2018-06-30T03:25:56.672Z,3.73
2018-06-30T03:28:25.971Z,4.03
2018-06-30T03:30:56.200Z,3.70
2018-06-30T03:33:25.514Z,3.97
2018-06-30T03:35:54.844Z,4.00
2018-06-30T03:38:24.575Z,3.97
2018-06-30T03:40:54.193Z,3.73
2018-06-30T03:43:23.513Z,3.73
2018-06-30T03:45:54.409Z,3.67
2018-06-30T03:48:23.809Z,4.07
2018-06-30T03:50:53.192Z,3.87
2018-06-30T03:53:22.960Z,3.90
2018-06-30T03:55:52.312Z,3.60
2018-06-30T03:58:21.833Z,3.70
2018-06-30T04:00:51.131Z,3.60
2018-06-30T04:03:21.112Z,3.93
2018-06-30T04:05:50.641Z,3.50
2018-06-30T04:08:20.407Z,3.70
2018-06-30T04:10:50.099Z,3.63
2018-06-30T04:13:19.968Z,3.80
2018-06-30T04:15:50.225Z,3.70
2018-06-30T04:18:20.335Z,3.40
2018-06-30T04:20:50.712Z,3.60
2018-06-30T04:23:20.439Z,3.63
2018-06-30T04:25:50.729Z,3.60
2018-06-30T04:28:20.813Z,3.33
2018-06-30T04:30:50.132Z,3.70
2018-06-30T04:33:20.470Z,3.70
2018-06-30T04:35:50.065Z,3.70
2018-06-30T04:38:20.328Z,3.67
2018-06-30T04:40:50.521Z,3.33
2018-06-30T04:43:19.901Z,4.03
2018-06-30T04:45:49.261Z,3.90
2018-06-30T04:48:19.483Z,3.50
2018-06-30T04:50:49.508Z,3.30
2018-06-30T04:53:18.914Z,3.13
2018-06-30T04:55:48.404Z,3.07
2018-06-30T04:58:17.984Z,3.70
2018-06-30T05:00:48.106Z,3.90
2018-06-30T05:03:17.815Z,4.03
2018-06-30T05:05:47.966Z,3.40
2018-06-30T05:08:17.608Z,3.30
2018-06-30T05:10:46.929Z,3.43
2018-06-30T05:13:16.576Z,3.17
2018-06-30T05:15:45.883Z,3.90
2018-06-30T05:18:15.217Z,3.80
2018-06-30T05:20:44.587Z,3.47
2018-06-30T05:23:13.904Z,3.60
2018-06-30T05:25:43.269Z,3.70
2018-06-30T05:28:12.577Z,3.50
2018-06-30T05:30:41.940Z,3.40
2018-06-30T05:33:11.239Z,3.20
2018-06-30T05:35:41.115Z,3.73
2018-06-30T05:38:10.883Z,3.60
2018-06-30T05:40:41.302Z,4.17
2018-06-30T05:43:10.894Z,3.47
2018-06-30T05:45:40.719Z,3.37
2018-06-30T05:48:10.270Z,3.30
2018-06-30T05:50:39.950Z,3.47
2018-06-30T05:53:09.685Z,3.30
2018-06-30T05:55:39.058Z,3.53
2018-06-30T05:58:08.393Z,3.30
2018-06-30T06:00:37.768Z,3.33
2018-06-30T06:03:07.899Z,3.70
2018-06-30T06:05:37.251Z,3.63
2018-06-30T06:08:06.652Z,3.37
2018-06-30T06:10:36.035Z,3.03
2018-06-30T06:13:05.988Z,3.30
2018-06-30T06:15:35.730Z,3.43
2018-06-30T06:18:05.480Z,3.30
2018-06-30T06:20:35.178Z,3.30
2018-06-30T06:23:04.488Z,3.37
2018-06-30T06:25:34.452Z,3.07
2018-06-30T06:28:03.772Z,3.10
2018-06-30T06:30:33.122Z,3.27
2018-06-30T06:33:03.380Z,3.20
2018-06-30T06:35:32.996Z,2.93
2018-06-30T06:38:02.309Z,2.93
2018-06-30T06:40:31.651Z,3.10
2018-06-30T06:43:00.975Z,2.90
2018-06-30T06:45:31.120Z,3.23
2018-06-30T06:48:01.387Z,3.07
2018-06-30T06:50:31.289Z,3.17
2018-06-30T06:53:01.578Z,2.90
2018-06-30T06:55:30.899Z,3.40
2018-06-30T06:58:00.285Z,3.07
2018-06-30T07:00:30.251Z,3.20
2018-06-30T07:03:00.141Z,3.00
2018-06-30T07:05:29.495Z,2.77
2018-06-30T07:07:58.873Z,3.03
2018-06-30T07:10:28.196Z,3.00
2018-06-30T07:12:57.574Z,2.73
2018-06-30T07:15:26.885Z,2.63
2018-06-30T07:17:56.280Z,3.17
2018-06-30T07:20:25.611Z,3.17
2018-06-30T07:22:55.319Z,2.90
2018-06-30T07:25:26.100Z,2.70
2018-06-30T07:27:55.430Z,2.90
2018-06-30T07:30:25.116Z,2.90
2018-06-30T07:32:54.478Z,2.90
2018-06-30T07:35:23.848Z,2.63
2018-06-30T07:37:53.561Z,2.60
2018-06-30T07:40:23.168Z,2.77
2018-06-30T07:42:52.534Z,2.80
2018-06-30T07:45:26.149Z,2.60
2018-06-30T07:47:55.819Z,2.63
2018-06-30T07:50:25.532Z,3.00
2018-06-30T07:52:55.188Z,2.33
2018-06-30T07:55:24.703Z,2.80
2018-06-30T07:57:54.744Z,2.60
2018-06-30T08:00:24.526Z,2.50
2018-06-30T08:02:53.902Z,2.50
2018-06-30T08:05:24.336Z,2.43
2018-06-30T08:07:53.729Z,2.30
2018-06-30T08:10:23.082Z,2.50
2018-06-30T08:12:52.400Z,2.53
2018-06-30T08:15:22.194Z,4.87
2018-06-30T08:17:51.796Z,8.50
2018-06-30T08:20:21.559Z,2.70
2018-06-30T08:22:50.916Z,2.33
2018-06-30T08:25:20.827Z,2.60
2018-06-30T08:27:50.560Z,2.87
2018-06-30T08:30:19.911Z,2.63
2018-06-30T08:32:49.479Z,3.10
2018-06-30T08:35:19.430Z,2.60
2018-06-30T08:37:49.041Z,3.20
2018-06-30T08:40:18.388Z,3.07
2018-06-30T08:42:47.950Z,3.40
2018-06-30T08:45:17.322Z,3.50
2018-06-30T08:47:46.695Z,3.30
2018-06-30T08:50:16.040Z,3.20
2018-06-30T08:52:46.101Z,2.97
2018-06-30T08:55:15.733Z,3.83
2018-06-30T08:57:45.351Z,3.70
2018-06-30T09:00:14.929Z,3.87
2018-06-30T09:02:45.475Z,3.30
2018-06-30T09:05:15.866Z,3.47
2018-06-30T09:07:45.207Z,25.07
2018-06-30T09:10:14.922Z,3.77
2018-06-30T09:12:44.290Z,3.60
2018-06-30T09:15:13.652Z,3.57
2018-06-30T09:17:42.984Z,3.43
2018-06-30T09:20:13.364Z,3.80
2018-06-30T09:22:42.982Z,3.87
2018-06-30T09:25:12.346Z,3.90
2018-06-30T09:27:42.114Z,3.47
2018-06-30T09:30:11.533Z,3.20
2018-06-30T09:32:40.846Z,3.07
2018-06-30T09:35:10.989Z,3.07
2018-06-30T09:37:40.341Z,3.60
2018-06-30T09:40:09.724Z,2.97
2018-06-30T09:42:40.523Z,2.80
2018-06-30T09:45:09.897Z,2.40
2018-06-30T09:47:40.073Z,2.10
2018-06-30T09:50:09.440Z,2.20
2018-06-30T09:52:38.828Z,2.43
2018-06-30T09:55:08.460Z,2.50
2018-06-30T09:57:39.361Z,2.63
2018-06-30T10:00:09.729Z,1.80
2018-06-30T10:02:39.498Z,2.23
2018-06-30T10:05:09.219Z,1.87
2018-06-30T10:07:39.335Z,2.20
2018-06-30T10:10:08.696Z,1.73
2018-06-30T10:12:38.121Z,1.73
2018-06-30T10:15:07.393Z,1.93
2018-06-30T10:17:37.208Z,1.90
2018-06-30T10:20:07.007Z,1.70
2018-06-30T10:22:36.363Z,1.93
2018-06-30T10:25:06.412Z,2.30
2018-06-30T10:27:35.782Z,2.30
2018-06-30T10:30:05.727Z,2.40
2018-06-30T10:32:35.411Z,2.00
2018-06-30T10:35:06.679Z,2.13
2018-06-30T10:37:36.263Z,2.97
2018-06-30T10:40:06.039Z,2.03
2018-06-30T10:42:35.698Z,1.80
2018-06-30T10:45:05.984Z,2.03
2018-06-30T10:47:35.432Z,1.97
2018-06-30T10:50:05.807Z,2.07
2018-06-30T10:52:35.415Z,2.20
2018-06-30T10:55:05.154Z,2.00
2018-06-30T10:57:34.984Z,2.07
2018-06-30T11:00:04.864Z,2.10
2018-06-30T11:02:34.250Z,2.37
2018-06-30T11:05:03.722Z,2.43
2018-06-30T11:07:33.444Z,2.30
2018-06-30T11:10:03.200Z,2.23
2018-06-30T11:12:32.817Z,2.50
2018-06-30T11:15:02.509Z,2.70
2018-06-30T11:17:31.867Z,2.60
2018-06-30T11:20:01.541Z,2.80
2018-06-30T11:22:31.203Z,2.60
2018-06-30T11:25:00.822Z,2.67
2018-06-30T11:27:30.627Z,2.43
2018-06-30T11:30:00.308Z,2.53
2018-06-30T11:32:29.621Z,2.43
2018-06-30T11:34:58.962Z,2.60
2018-06-30T11:37:28.681Z,2.13
2018-06-30T11:39:58.021Z,2.20
2018-06-30T11:42:29.132Z,2.47
2018-06-30T11:44:58.824Z,2.97
2018-06-30T11:47:29.100Z,2.27
2018-06-30T11:49:59.703Z,2.30
2018-06-30T11:52:29.945Z,2.00
2018-06-30T11:55:00.719Z,1.90
2018-06-30T11:57:30.264Z,2.17
2018-06-30T11:59:59.607Z,1.80
2018-06-30T12:02:28.943Z,1.83
2018-06-30T12:04:58.311Z,1.73
2018-06-30T12:07:27.956Z,1.70
2018-06-30T12:09:57.324Z,1.53
2018-06-30T12:12:26.700Z,1.70
2018-06-30T12:14:56.141Z,1.73
2018-06-30T12:17:25.522Z,1.70
2018-06-30T12:19:55.555Z,1.70
2018-06-30T12:22:25.001Z,1.57
2018-06-30T12:24:54.472Z,1.50
2018-06-30T12:27:24.148Z,1.27
2018-06-30T12:29:53.784Z,1.40
2018-06-30T12:32:23.372Z,1.60
2018-06-30T12:34:53.073Z,1.60
2018-06-30T12:37:22.445Z,1.30
2018-06-30T12:39:51.837Z,1.20
2018-06-30T12:42:21.916Z,1.17
2018-06-30T12:44:51.524Z,1.20
2018-06-30T12:47:20.832Z,0.97
2018-06-30T12:49:50.162Z,0.90
2018-06-30T12:52:20.364Z,0.80
2018-06-30T12:54:49.740Z,1.00
2018-06-30T12:57:21.433Z,0.80
2018-06-30T12:59:51.079Z,1.00
2018-06-30T13:02:21.019Z,0.83
2018-06-30T13:04:50.402Z,1.30
2018-06-30T13:07:20.547Z,0.80
2018-06-30T13:09:50.480Z,1.00
2018-06-30T13:12:20.820Z,0.80
2018-06-30T13:14:50.133Z,0.90
2018-06-30T13:17:19.498Z,1.00
2018-06-30T13:19:50.135Z,0.80
2018-06-30T13:22:20.483Z,0.77
2018-06-30T13:24:50.699Z,0.70
2018-06-30T13:27:20.489Z,0.70
2018-06-30T13:29:49.867Z,0.87
2018-06-30T13:32:19.803Z,0.90
2018-06-30T13:34:49.405Z,0.53
2018-06-30T13:37:18.752Z,0.80
2018-06-30T13:39:48.431Z,0.77
2018-06-30T13:42:17.833Z,0.93
2018-06-30T13:44:47.167Z,0.70
2018-06-30T13:47:16.922Z,0.60
2018-06-30T13:49:46.282Z,0.90
2018-06-30T13:52:17.036Z,0.57
2018-06-30T13:54:46.613Z,0.70
2018-06-30T13:57:15.994Z,0.70
2018-06-30T13:59:46.205Z,0.70
2018-06-30T14:02:15.591Z,0.70
2018-06-30T14:04:45.362Z,0.60
2018-06-30T14:07:14.695Z,0.83
2018-06-30T14:09:44.056Z,0.60
2018-06-30T14:12:13.997Z,0.50
2018-06-30T14:14:43.972Z,0.50
2018-06-30T14:17:13.520Z,0.60
2018-06-30T14:19:43.181Z,0.60
2018-06-30T14:22:13.295Z,0.60
2018-06-30T14:24:42.914Z,0.60
2018-06-30T14:27:12.267Z,0.60
2018-06-30T14:29:41.740Z,0.50
2018-06-30T14:32:11.108Z,0.60
2018-06-30T14:34:40.983Z,0.70
2018-06-30T14:37:10.736Z,0.60
2018-06-30T14:39:40.051Z,1.00
2018-06-30T14:42:09.521Z,0.70
2018-06-30T14:44:39.465Z,0.70
2018-06-30T14:47:09.505Z,0.90
2018-06-30T14:49:38.925Z,0.70
2018-06-30T14:52:08.939Z,1.00
2018-06-30T14:54:38.941Z,1.20
2018-06-30T14:57:08.280Z,0.90
2018-06-30T14:59:37.869Z,0.90
2018-06-30T15:02:08.438Z,1.00
2018-06-30T15:04:37.872Z,0.98
2018-06-30T15:07:07.636Z,0.80
2018-06-30T15:09:37.005Z,0.70
2018-06-30T15:12:07.042Z,0.80
2018-06-30T15:14:37.106Z,0.70
2018-06-30T15:17:06.942Z,0.70
2018-06-30T15:19:36.290Z,0.50
2018-06-30T15:22:05.676Z,0.57
2018-06-30T15:24:35.817Z,0.70
2018-06-30T15:27:05.274Z,0.47
2018-06-30T15:29:34.986Z,0.60
2018-06-30T15:32:04.973Z,0.53
2018-06-30T15:34:34.998Z,0.60
2018-06-30T15:37:04.810Z,0.60
2018-06-30T15:39:35.570Z,0.70
2018-06-30T15:42:04.937Z,0.57
2018-06-30T15:44:35.450Z,0.73
2018-06-30T15:47:04.868Z,0.50
2018-06-30T15:49:34.218Z,0.90
2018-06-30T15:52:03.961Z,1.50
2018-06-30T15:54:33.894Z,1.63
2018-06-30T15:57:03.232Z,1.13
2018-06-30T15:59:32.940Z,0.93
2018-06-30T16:02:02.302Z,0.97
2018-06-30T16:04:31.626Z,1.17
2018-06-30T16:07:02.661Z,1.55
2018-06-30T16:09:32.430Z,1.00
2018-06-30T16:12:02.103Z,1.05
2018-06-30T16:14:31.442Z,0.97
2018-06-30T16:17:01.580Z,0.90
2018-06-30T16:19:30.898Z,0.70
2018-06-30T16:22:00.668Z,0.80
2018-06-30T16:24:30.535Z,0.60
2018-06-30T16:26:59.907Z,0.60
2018-06-30T16:29:30.358Z,0.82
2018-06-30T16:32:01.125Z,0.57
2018-06-30T16:34:30.486Z,0.70
2018-06-30T16:37:01.331Z,0.70
2018-06-30T16:39:30.672Z,0.50
2018-06-30T16:42:00.332Z,0.50
2018-06-30T16:44:29.953Z,0.67
2018-06-30T16:46:59.693Z,0.40
2018-06-30T16:49:30.157Z,0.60
2018-06-30T16:51:59.504Z,1.10
2018-06-30T16:54:28.864Z,0.80
2018-06-30T16:56:58.441Z,1.23
2018-06-30T16:59:28.277Z,0.90
2018-06-30T17:01:58.081Z,0.65
2018-06-30T17:04:27.656Z,0.60
2018-06-30T17:06:56.999Z,0.50
2018-06-30T17:09:26.596Z,0.60
2018-06-30T17:11:56.185Z,0.40
2018-06-30T17:14:26.158Z,0.60
2018-06-30T17:16:55.493Z,0.40
2018-06-30T17:19:25.416Z,0.63
2018-06-30T17:21:55.530Z,1.00
2018-06-30T17:24:24.894Z,0.50
2018-06-30T17:26:54.642Z,0.70
2018-06-30T17:29:24.012Z,0.50
2018-06-30T17:31:53.417Z,0.60
2018-06-30T17:34:22.829Z,0.87
2018-06-30T17:36:52.731Z,1.67
2018-06-30T17:39:22.674Z,5.10
2018-06-30T17:41:53.454Z,3.37
2018-06-30T17:44:22.940Z,0.60
2018-06-30T17:46:52.541Z,0.60
2018-06-30T17:49:22.314Z,0.67
2018-06-30T17:51:52.011Z,0.50
2018-06-30T17:54:21.697Z,0.53
2018-06-30T17:56:51.488Z,0.60
2018-06-30T17:59:20.842Z,0.40
2018-06-30T18:01:50.214Z,0.80
2018-06-30T18:04:19.912Z,0.40
2018-06-30T18:06:49.495Z,0.70
2018-06-30T18:09:20.371Z,0.63
2018-06-30T18:11:49.733Z,0.63
2018-06-30T18:14:19.941Z,0.70
2018-06-30T18:16:49.268Z,0.70
2018-06-30T18:19:18.984Z,0.93
2018-06-30T18:21:49.192Z,0.90
2018-06-30T18:24:18.936Z,0.70
2018-06-30T18:26:48.248Z,1.80
2018-06-30T18:29:17.602Z,0.60
2018-06-30T18:31:47.769Z,0.70
2018-06-30T18:34:17.892Z,0.60
2018-06-30T18:36:47.543Z,0.60
2018-06-30T18:39:17.645Z,0.57
2018-06-30T18:41:47.013Z,0.57
2018-06-30T18:44:16.344Z,0.60
2018-06-30T18:46:45.788Z,0.57
2018-06-30T18:49:15.455Z,0.50
2018-06-30T18:51:44.818Z,0.60
2018-06-30T18:54:14.193Z,0.63
2018-06-30T18:56:43.972Z,0.50
2018-06-30T18:59:14.184Z,0.53
2018-06-30T19:01:43.592Z,0.57
2018-06-30T19:04:13.089Z,0.70
2018-06-30T19:06:42.464Z,0.60
2018-06-30T19:09:11.917Z,0.60
2018-06-30T19:11:41.577Z,0.80
2018-06-30T19:14:10.918Z,1.03
2018-06-30T19:16:40.574Z,1.07
2018-06-30T19:19:10.274Z,1.10
2018-06-30T19:21:40.278Z,1.50
2018-06-30T19:24:11.308Z,1.47
2018-06-30T19:26:40.741Z,1.57
2018-06-30T19:29:10.929Z,1.30
2018-06-30T19:31:40.323Z,1.50
2018-06-30T19:34:09.648Z,1.90
2018-06-30T19:36:39.422Z,1.50
2018-06-30T19:39:10.819Z,2.10
2018-06-30T19:41:40.432Z,1.70
2018-06-30T19:44:10.635Z,1.47
2018-06-30T19:46:40.077Z,1.50
2018-06-30T19:49:09.382Z,1.60
2018-06-30T19:51:38.712Z,1.60
2018-06-30T19:54:08.435Z,1.50
2018-06-30T19:56:38.121Z,1.50
2018-06-30T19:59:08.359Z,1.60
2018-06-30T20:01:38.097Z,1.50
2018-06-30T20:04:07.668Z,1.60
2018-06-30T20:06:37.332Z,1.40
2018-06-30T20:09:08.828Z,1.70
2018-06-30T20:11:38.227Z,1.70
2018-06-30T20:14:07.667Z,1.80
2018-06-30T20:16:37.029Z,1.90
2018-06-30T20:19:06.434Z,1.83
2018-06-30T20:21:35.861Z,2.23
2018-06-30T20:24:06.172Z,1.93
2018-06-30T20:26:35.457Z,1.90
2018-06-30T20:29:05.379Z,1.90
2018-06-30T20:31:34.965Z,1.90
2018-06-30T20:34:04.330Z,2.43
2018-06-30T20:36:33.968Z,2.03
2018-06-30T20:39:03.949Z,2.27
2018-06-30T20:41:33.347Z,2.03
2018-06-30T20:44:03.490Z,1.80
2018-06-30T20:46:32.813Z,1.90
2018-06-30T20:49:02.171Z,1.67
2018-06-30T20:51:32.305Z,1.97
2018-06-30T20:54:02.197Z,1.87
2018-06-30T20:56:31.978Z,1.50
2018-06-30T20:59:03.370Z,1.47
2018-06-30T21:01:33.300Z,1.53
2018-06-30T21:04:03.558Z,1.53
2018-06-30T21:06:32.949Z,1.93
2018-06-30T21:09:02.865Z,1.60
2018-06-30T21:11:32.185Z,1.60
2018-06-30T21:14:01.530Z,1.50
2018-06-30T21:16:30.866Z,1.63
2018-06-30T21:19:00.201Z,1.57
2018-06-30T21:21:29.877Z,1.37
2018-06-30T21:23:59.232Z,1.40
2018-06-30T21:26:28.575Z,1.50
2018-06-30T21:28:58.724Z,1.20
2018-06-30T21:31:28.438Z,1.50
2018-06-30T21:33:58.120Z,1.03
2018-06-30T21:36:27.501Z,1.07
2018-06-30T21:38:56.858Z,1.30
2018-06-30T21:41:26.360Z,0.90
2018-06-30T21:43:56.677Z,1.17
2018-06-30T21:46:26.380Z,1.10
2018-06-30T21:48:56.555Z,1.40
2018-06-30T21:51:26.262Z,1.03
2018-06-30T21:53:55.968Z,1.27
2018-06-30T21:56:26.193Z,1.20
2018-06-30T21:58:56.048Z,1.10
2018-06-30T22:01:26.723Z,1.00
2018-06-30T22:03:57.439Z,1.20
2018-06-30T22:06:26.816Z,1.00
2018-06-30T22:08:56.168Z,1.07
2018-06-30T22:11:26.478Z,1.03
2018-06-30T22:13:56.022Z,1.00
2018-06-30T22:16:25.416Z,1.10
2018-06-30T22:18:55.093Z,1.17
2018-06-30T22:21:24.725Z,1.00
2018-06-30T22:23:54.305Z,1.07
2018-06-30T22:26:24.653Z,0.93
2018-06-30T22:28:53.952Z,0.90
2018-06-30T22:31:23.589Z,0.90
2018-06-30T22:33:53.255Z,0.80
2018-06-30T22:36:22.628Z,1.00
2018-06-30T22:38:52.638Z,0.80
2018-06-30T22:41:22.315Z,1.00
2018-06-30T22:43:51.740Z,0.90
2018-06-30T22:46:21.135Z,0.90
2018-06-30T22:48:50.497Z,0.80
2018-06-30T22:51:20.336Z,1.00
2018-06-30T22:53:49.685Z,0.87
2018-06-30T22:56:19.108Z,1.00
2018-06-30T22:58:48.710Z,0.83
2018-06-30T23:01:18.074Z,0.60
2018-06-30T23:03:47.451Z,1.00
2018-06-30T23:06:17.004Z,0.80
2018-06-30T23:08:52.349Z,1.13
2018-06-30T23:11:22.686Z,0.93
2018-06-30T23:13:52.721Z,0.80
2018-06-30T23:16:23.016Z,0.70
2018-06-30T23:18:52.626Z,0.87
2018-06-30T23:21:21.960Z,0.97
2018-06-30T23:23:51.323Z,0.80
2018-06-30T23:26:27.364Z,0.80
2018-06-30T23:28:56.704Z,0.70
2018-06-30T23:31:26.033Z,0.70
2018-06-30T23:33:55.392Z,0.50
2018-06-30T23:36:24.735Z,0.93
2018-06-30T23:38:54.367Z,0.87
2018-06-30T23:41:24.088Z,1.10
2018-06-30T23:43:54.456Z,0.80
2018-06-30T23:46:23.807Z,0.80
2018-06-30T23:48:53.125Z,0.90
2018-06-30T23:51:22.822Z,0.93
2018-06-30T23:53:52.505Z,1.00
2018-06-30T23:56:22.616Z,0.83
2018-06-30T23:58:53.349Z,0.90
